Time;durP1;ratioP1;P1;durP2;ratioP2;P2;SDS_P1;SDS_P2;PMS_P1;PMS_P2;Temp;Humidity;BMP_temperature;BMP_pressure;BME280_temperature;BME280_humidity;BME280_pressure;Samples;Min_cycle;Max_cycle;Signal;HPM_P1;HPM_P2
2021/09/17 00:00:09;;;;;;;0.95;0.63;;;;;;;7.64;100.00;100975.69;4865455;29;20050;-81
2021/09/17 00:02:36;;;;;;;1.02;0.60;;;;;;;7.57;100.00;100949.78;4843412;29;20064;-83
2021/09/17 00:05:03;;;;;;;0.40;0.40;;;;;;;7.69;100.00;100996.59;4849380;29;20125;-81
2021/09/17 00:07:29;;;;;;;0.90;0.40;;;;;;;8.86;100.00;101150.19;4862914;29;20041;-82
2021/09/17 00:09:55;;;;;;;0.60;0.50;;;;;;;8.58;100.00;101099.78;4832391;29;20048;-80
2021/09/17 00:12:20;;;;;;;0.60;0.40;;;;;;;8.18;100.00;101044.56;4862337;29;20053;-80
2021/09/17 00:14:46;;;;;;;0.80;0.50;;;;;;;8.90;100.00;101159.56;4846346;29;20071;-81
2021/09/17 00:17:12;;;;;;;1.67;0.60;;;;;;;8.20;100.00;101023.75;4860508;29;20049;-80
2021/09/17 00:19:37;;;;;;;1.90;0.55;;;;;;;8.34;100.00;101041.75;4846507;29;20042;-81
2021/09/17 00:22:03;;;;;;;1.52;0.50;;;;;;;8.20;100.00;101027.25;4829858;29;20026;-81
2021/09/17 00:24:29;;;;;;;1.50;0.60;;;;;;;8.16;100.00;101014.41;4848005;29;20092;-82
2021/09/17 00:26:54;;;;;;;1.95;0.60;;;;;;;8.20;100.00;101047.88;4848568;29;20105;-81
2021/09/17 00:29:20;;;;;;;0.98;0.60;;;;;;;8.20;100.00;101029.94;4862177;29;20041;-81
2021/09/17 00:31:46;;;;;;;1.02;0.57;;;;;;;7.86;100.00;100974.06;4840781;29;20067;-80
2021/09/17 00:34:11;;;;;;;0.82;0.60;;;;;;;8.26;100.00;101043.66;4858371;29;20030;-81
2021/09/17 00:36:37;;;;;;;0.85;0.70;;;;;;;8.27;100.00;101043.47;4861729;29;20045;-81
2021/09/17 00:39:04;;;;;;;1.13;0.70;;;;;;;8.77;100.00;101125.28;4864719;29;20032;-81
2021/09/17 00:41:29;;;;;;;1.67;0.63;;;;;;;8.31;100.00;101047.47;4831353;29;20053;-81
2021/09/17 00:43:55;;;;;;;0.98;0.88;;;;;;;7.90;100.00;100970.00;4842508;29;20006;-81
2021/09/17 00:46:22;;;;;;;0.93;0.63;;;;;;;7.96;100.00;100969.31;4827726;29;20089;-81
2021/09/17 00:48:48;;;;;;;1.70;0.90;;;;;;;8.37;100.00;101037.88;4830907;29;20042;-81
2021/09/17 00:51:14;;;;;;;1.35;1.08;;;;;;;7.85;100.00;100948.28;4861871;29;20042;-81
2021/09/17 00:53:39;;;;;;;1.60;0.73;;;;;;;8.07;100.00;100997.53;4846337;29;20078;-82
2021/09/17 00:56:05;;;;;;;1.25;0.90;;;;;;;7.99;100.00;100997.59;4865436;29;20018;-81
2021/09/17 00:58:31;;;;;;;1.05;0.80;;;;;;;8.03;100.00;101006.13;4865294;29;20034;-82
2021/09/17 01:00:57;;;;;;;1.45;0.85;;;;;;;7.97;100.00;100975.50;4844220;29;20039;-81
2021/09/17 01:03:23;;;;;;;0.98;0.70;;;;;;;8.66;100.00;101074.72;4862411;29;20045;-81
2021/09/17 01:05:48;;;;;;;1.33;0.88;;;;;;;8.69;100.00;101072.53;4846540;29;20034;-80
2021/09/17 01:08:14;;;;;;;0.95;0.80;;;;;;;8.70;100.00;101105.53;4844266;29;20076;-80
2021/09/17 01:10:42;;;;;;;1.00;0.80;;;;;;;8.07;100.00;100983.31;4863598;29;20033;-83
2021/09/17 01:13:09;;;;;;;0.70;0.70;;;;;;;8.35;100.00;101032.69;4842534;29;20034;-81
2021/09/17 01:15:34;;;;;;;1.33;0.70;;;;;;;8.71;100.00;101083.09;4851199;29;20077;-81
2021/09/17 01:18:00;;;;;;;1.00;0.73;;;;;;;9.07;100.00;101136.97;4850389;29;20014;-82
2021/09/17 01:20:25;;;;;;;3.20;0.80;;;;;;;9.08;100.00;101164.63;4848142;29;20084;-81
2021/09/17 01:22:52;;;;;;;1.30;0.80;;;;;;;9.06;100.00;101148.69;4862691;29;20034;-81
2021/09/17 01:25:20;;;;;;;0.68;0.68;;;;;;;8.56;100.00;101052.69;4846427;29;20105;-80
2021/09/17 01:27:48;;;;;;;1.33;0.80;;;;;;;9.14;100.00;101163.91;4846943;29;20034;-82
2021/09/17 01:30:32;;;;;;;2.15;0.80;;;;;;;8.30;100.00;101010.94;4837501;29;20038;-82
2021/09/17 01:32:58;;;;;;;1.35;0.90;;;;;;;8.74;100.00;101092.59;4845445;29;20034;-81
2021/09/17 01:35:24;;;;;;;1.20;0.90;;;;;;;8.69;100.00;101079.75;4844598;29;20064;-82
2021/09/17 01:37:51;;;;;;;1.13;1.00;;;;;;;8.55;100.00;101077.84;4858786;29;20025;-81
2021/09/17 01:40:17;;;;;;;1.63;0.93;;;;;;;8.76;100.00;101088.72;4847542;29;20022;-81
2021/09/17 01:42:45;;;;;;;1.20;1.10;;;;;;;8.59;100.00;101063.06;4845381;29;20006;-81
2021/09/17 01:45:11;;;;;;;1.25;1.02;;;;;;;8.08;100.00;100995.69;4860550;29;20468;-80
2021/09/17 01:47:38;;;;;;;1.20;0.85;;;;;;;9.13;100.00;101160.38;4861064;29;20037;-81
2021/09/17 01:50:05;;;;;;;1.02;0.80;;;;;;;8.26;100.00;101011.50;4861096;29;20022;-82
2021/09/17 01:52:31;;;;;;;0.70;0.70;;;;;;;9.20;100.00;101157.81;4846793;29;20063;-82
2021/09/17 01:54:56;;;;;;;1.10;0.88;;;;;;;8.28;100.00;101006.75;4844655;29;20042;-82
2021/09/17 01:57:23;;;;;;;0.68;0.60;;;;;;;8.53;100.00;101053.88;4864386;24;20050;-81
2021/09/17 01:59:48;;;;;;;1.13;0.82;;;;;;;9.24;100.00;101159.13;4824887;29;20076;-81
2021/09/17 02:02:14;;;;;;;1.35;0.80;;;;;;;8.56;100.00;101047.31;4814325;29;20047;-81
2021/09/17 02:04:39;;;;;;;1.20;0.88;;;;;;;8.27;100.00;101005.94;4807518;29;20031;-81
2021/09/17 02:07:05;;;;;;;1.10;1.00;;;;;;;9.16;100.00;101141.22;4784409;30;20120;-81
2021/09/17 02:09:30;;;;;;;1.00;0.90;;;;;;;8.46;100.00;101036.84;4799095;29;20022;-81
2021/09/17 02:11:56;;;;;;;0.82;0.80;;;;;;;8.17;100.00;100991.94;4820946;29;20061;-80
2021/09/17 02:14:22;;;;;;;0.90;0.80;;;;;;;8.25;100.00;100989.22;4821044;29;20050;-80
2021/09/17 02:16:47;;;;;;;1.27;0.85;;;;;;;8.23;100.00;100985.88;4804590;30;20099;-81
2021/09/17 02:19:13;;;;;;;0.82;0.80;;;;;;;8.27;100.00;100999.75;4792235;30;20019;-82
2021/09/17 02:21:39;;;;;;;1.13;0.90;;;;;;;8.40;100.00;101008.88;4792508;29;20039;-81
2021/09/17 02:24:06;;;;;;;1.45;0.85;;;;;;;8.77;100.00;101052.00;4809956;29;20023;-83
2021/09/17 02:26:32;;;;;;;0.82;0.80;;;;;;;8.80;100.00;101084.66;4826206;29;20073;-81
2021/09/17 02:28:57;;;;;;;0.80;0.80;;;;;;;8.79;100.00;101095.59;4811602;29;20027;-82
2021/09/17 02:31:23;;;;;;;0.90;0.80;;;;;;;8.68;100.00;101070.03;4827845;29;20027;-81
2021/09/17 02:33:48;;;;;;;0.75;0.75;;;;;;;8.22;100.00;100981.53;4805895;29;20045;-81
2021/09/17 02:36:15;;;;;;;1.08;0.93;;;;;;;8.16;100.00;100987.59;4794572;29;20038;-81
2021/09/17 02:38:41;;;;;;;1.27;0.90;;;;;;;8.09;100.00;100947.28;4810516;29;20023;-82
2021/09/17 02:41:06;;;;;;;2.20;0.95;;;;;;;9.16;100.00;101140.38;4809036;29;20035;-81
2021/09/17 02:43:32;;;;;;;1.00;0.90;;;;;;;8.32;100.00;101019.66;4807883;29;20104;-81
2021/09/17 02:45:59;;;;;;;1.42;0.73;;;;;;;8.73;100.00;101085.56;4822386;29;20038;-82
2021/09/17 02:48:30;;;;;;;1.10;0.80;;;;;;;9.10;100.00;101151.84;4807269;29;20061;-81
2021/09/17 02:50:56;;;;;;;1.42;0.73;;;;;;;8.58;100.00;101053.34;4826629;29;20026;-81
2021/09/17 02:53:23;;;;;;;1.00;0.70;;;;;;;8.84;100.00;101094.03;4821334;29;20031;-81
2021/09/17 02:55:49;;;;;;;0.77;0.77;;;;;;;9.17;100.00;101147.41;4824700;29;20046;-81
2021/09/17 02:58:15;;;;;;;0.85;0.70;;;;;;;8.71;100.00;101085.78;4814630;29;20027;-81
2021/09/17 03:00:42;;;;;;;0.70;0.70;;;;;;;8.45;100.00;101048.59;4792615;30;20035;-81
2021/09/17 03:03:08;;;;;;;0.60;0.60;;;;;;;8.53;100.00;101042.31;4806792;29;20494;-81
2021/09/17 03:05:34;;;;;;;0.80;0.70;;;;;;;8.18;100.00;100980.22;4806188;30;20035;-82
2021/09/17 03:08:00;;;;;;;0.70;0.70;;;;;;;8.28;100.00;101013.00;4791072;30;20028;-82
2021/09/17 03:10:25;;;;;;;1.48;0.77;;;;;;;8.26;100.00;101028.41;4809269;30;20053;-81
2021/09/17 03:12:51;;;;;;;0.80;0.70;;;;;;;8.49;100.00;101052.56;4808654;30;20062;-81
2021/09/17 03:15:16;;;;;;;0.80;0.70;;;;;;;9.04;100.00;101149.88;4807825;30;20050;-80
2021/09/17 03:17:42;;;;;;;0.88;0.80;;;;;;;8.39;100.00;101025.16;4805478;29;20020;-81
2021/09/17 03:20:08;;;;;;;0.93;0.90;;;;;;;8.66;100.00;101077.41;4792029;30;20035;-81
2021/09/17 03:22:34;;;;;;;1.13;0.93;;;;;;;8.03;100.00;100982.00;4805591;29;20054;-81
2021/09/17 03:25:00;;;;;;;1.10;1.00;;;;;;;8.14;100.00;100992.28;4805365;29;20038;-81
2021/09/17 03:27:26;;;;;;;1.10;0.90;;;;;;;8.27;100.00;101043.47;4973186;24;21009;-79
2021/09/17 03:29:52;;;;;;;1.05;0.80;;;;;;;8.66;100.00;101083.59;4843957;29;20059;-82
2021/09/17 03:32:17;;;;;;;2.25;1.00;;;;;;;8.09;100.00;100970.56;4826517;29;20026;-81
2021/09/17 03:34:44;;;;;;;1.25;0.88;;;;;;;8.93;100.00;101119.78;4824873;29;20034;-81
2021/09/17 03:37:10;;;;;;;0.80;0.80;;;;;;;8.15;100.00;101013.56;4809774;29;20025;-81
2021/09/17 03:39:35;;;;;;;1.00;0.70;;;;;;;8.39;100.00;101044.75;4830147;29;20015;-81
2021/09/17 03:42:01;;;;;;;1.05;0.88;;;;;;;8.09;100.00;101024.16;4838569;29;20034;-81
2021/09/17 03:44:27;;;;;;;1.00;0.90;;;;;;;8.79;100.00;101122.41;4829081;29;20066;-81
2021/09/17 03:46:53;;;;;;;0.85;0.85;;;;;;;8.08;100.00;101001.03;4819685;29;20020;-80
2021/09/17 03:49:20;;;;;;;0.82;0.82;;;;;;;8.28;100.00;101045.16;4812120;29;20060;-82
2021/09/17 03:51:47;;;;;;;1.42;0.90;;;;;;;8.97;100.00;101135.53;4815344;29;20060;-82
2021/09/17 03:54:14;;;;;;;1.58;0.95;;;;;;;8.17;100.00;101008.03;4831191;29;20043;-81
2021/09/17 04:06:52;;;;;;;1.23;1.10;;;;;;;8.32;100.00;101030.38;4845541;29;20042;-83
2021/09/17 04:09:18;;;;;;;1.55;1.20;;;;;;;8.05;100.00;100993.38;4844341;29;20061;-81
2021/09/17 04:11:44;;;;;;;1.08;0.98;;;;;;;8.67;100.00;101104.03;4843124;29;20064;-80
2021/09/17 04:14:10;;;;;;;2.58;1.20;;;;;;;8.36;100.00;101050.44;4827946;29;20037;-82
2021/09/17 04:16:36;;;;;;;1.67;1.10;;;;;;;8.22;100.00;101032.47;4825154;29;20018;-81
2021/09/17 04:19:02;;;;;;;0.95;0.90;;;;;;;8.17;100.00;100999.97;4844912;29;20034;-84
2021/09/17 04:21:27;;;;;;;1.20;1.10;;;;;;;8.51;100.00;101069.31;4836037;29;20068;-83
2021/09/17 04:23:53;;;;;;;1.23;0.93;;;;;;;8.22;100.00;101016.38;4820549;29;20030;-83
2021/09/17 04:26:20;;;;;;;1.05;1.00;;;;;;;8.37;100.00;101036.03;5346453;24;20116;-82
2021/09/17 04:31:21;;;;;;;1.80;1.08;;;;;;;8.58;100.00;101056.88;5432451;24;20070;-81
2021/09/17 04:33:47;;;;;;;1.67;1.10;;;;;;;9.01;100.00;101131.47;4818874;29;20087;-82
2021/09/17 04:36:12;;;;;;;1.13;1.00;;;;;;;8.08;100.00;100987.63;4827925;29;20060;-81
2021/09/17 04:38:38;;;;;;;3.00;1.10;;;;;;;8.31;100.00;101034.09;4812720;29;20045;-81
2021/09/17 04:41:13;;;;;;;1.25;1.10;;;;;;;8.33;100.00;101050.81;4807818;29;20027;-82
2021/09/17 04:43:38;;;;;;;;;;;;;;;9.06;100.00;101156.75;4805722;29;20031;-80
2021/09/17 04:46:04;;;;;;;2.00;1.10;;;;;;;8.28;100.00;101033.56;4806190;29;19945;-82
2021/09/17 04:48:29;;;;;;;1.10;1.00;;;;;;;8.20;100.00;101048.72;4802311;29;20046;-81
2021/09/17 04:50:55;;;;;;;1.27;1.15;;;;;;;9.02;100.00;101159.97;4808238;29;20031;-80
2021/09/17 04:53:21;;;;;;;1.30;1.10;;;;;;;8.12;100.00;101026.50;4820691;29;20039;-81
2021/09/17 04:55:47;;;;;;;2.67;1.23;;;;;;;8.23;100.00;101034.13;4797143;29;20027;-80
2021/09/17 04:58:14;;;;;;;1.30;1.10;;;;;;;8.78;100.00;101110.03;4800080;29;20031;-80
2021/09/17 05:00:40;;;;;;;1.85;1.23;;;;;;;8.38;100.00;101069.09;4808945;29;20054;-81
2021/09/17 05:03:05;;;;;;;1.77;1.20;;;;;;;8.26;100.00;101068.63;4813754;29;20031;-82
2021/09/17 05:05:31;;;;;;;1.67;1.40;;;;;;;8.14;100.00;101032.50;4829803;29;20011;-82
2021/09/17 05:07:57;;;;;;;1.75;1.35;;;;;;;8.30;100.00;101061.88;4823519;29;20180;-81
2021/09/17 05:10:22;;;;;;;1.40;1.30;;;;;;;8.58;100.00;101099.78;4811461;29;20019;-82
2021/09/17 05:12:48;;;;;;;1.50;1.30;;;;;;;8.53;100.00;101102.16;4814967;29;20038;-81
2021/09/17 05:15:14;;;;;;;2.08;1.13;;;;;;;8.61;100.00;101112.84;4824391;29;20072;-82
2021/09/17 05:17:40;;;;;;;1.48;1.35;;;;;;;8.37;100.00;101078.91;4802651;30;20038;-82
2021/09/17 05:20:06;;;;;;;1.45;1.30;;;;;;;8.81;100.00;101136.50;4816363;29;20027;-82
2021/09/17 05:22:32;;;;;;;2.58;1.38;;;;;;;8.78;100.00;101153.78;4840086;24;20054;-82
2021/09/17 05:24:57;;;;;;;1.33;1.20;;;;;;;8.14;100.00;101053.94;4806591;29;20027;-82
2021/09/17 05:27:25;;;;;;;1.90;1.30;;;;;;;8.16;100.00;101073.38;4796738;29;20022;-84
2021/09/17 05:29:52;;;;;;;3.00;1.50;;;;;;;8.57;100.00;101124.09;4796095;30;20018;-83
2021/09/17 05:32:23;;;;;;;1.40;1.30;;;;;;;9.15;100.00;101203.16;4792054;29;20031;-81
2021/09/17 05:40:13;;;;;;;2.40;1.63;;;;;;;8.22;100.00;101054.72;5431630;24;19915;-83
2021/09/17 05:42:39;;;;;;;1.98;1.50;;;;;;;8.60;100.00;101113.00;4866003;29;20262;-82
2021/09/17 05:47:42;;;;;;;4.75;1.60;;;;;;;8.16;100.00;101063.47;5017033;24;20030;-79
2021/09/17 05:50:09;;;;;;;2.63;1.95;;;;;;;8.38;100.00;101087.84;4846159;29;20036;-81
2021/09/17 05:52:35;;;;;;;5.10;1.83;;;;;;;8.78;100.00;101156.47;4833002;29;20029;-82
2021/09/17 06:02:46;;;;;;;2.33;1.63;;;;;;;8.16;100.00;101073.38;5310100;24;20090;-83
2021/09/17 06:05:12;;;;;;;2.13;1.60;;;;;;;8.25;100.00;101080.38;4830410;29;20039;-84
2021/09/17 06:07:42;;;;;;;1.92;1.50;;;;;;;8.12;100.00;101064.03;4816745;29;20046;-82
2021/09/17 06:10:09;;;;;;;3.63;1.70;;;;;;;8.61;100.00;101145.03;4828325;29;20066;-81
2021/09/17 06:12:34;;;;;;;2.70;1.83;;;;;;;9.03;100.00;101221.53;4815163;29;20064;-82
2021/09/17 06:15:00;;;;;;;2.45;1.80;;;;;;;8.50;100.00;101123.97;5583383;24;20727;-84
2021/09/17 06:22:53;;;;;;;2.10;1.88;;;;;;;8.16;100.00;101089.47;5713473;24;20014;-84
2021/09/17 07:06:42;;;;;;;11.95;2.67;;;;;;;8.49;100.00;101132.19;5586743;24;20107;-81
2021/09/17 07:09:07;;;;;;;3.47;2.47;;;;;;;8.16;100.00;101105.53;4814960;29;20091;-84
2021/09/17 07:11:33;;;;;;;3.30;2.67;;;;;;;9.06;100.00;101239.13;4808831;29;20053;-84
2021/09/17 07:21:45;;;;;;;3.60;2.65;;;;;;;8.77;100.00;101207.63;5366362;24;20091;-81
2021/09/17 07:24:10;;;;;;;2.92;2.63;;;;;;;8.86;100.00;101214.59;4798443;29;20037;-80
2021/09/17 07:26:36;;;;;;;6.43;2.50;;;;;;;8.98;100.00;101226.63;4813681;29;20062;-82
2021/09/17 07:29:02;;;;;;;5.10;2.80;;;;;;;8.77;100.00;101181.63;4816726;29;20039;-81
2021/09/17 07:31:27;;;;;;;3.72;2.65;;;;;;;8.83;100.00;101214.97;4806933;29;20030;-81
2021/09/17 07:33:52;;;;;;;4.90;2.90;;;;;;;8.81;100.00;101230.41;4814275;29;20060;-80
2021/09/17 07:36:18;;;;;;;3.58;2.88;;;;;;;8.73;100.00;101209.81;4816906;29;20042;-84
2021/09/17 07:38:44;;;;;;;4.35;2.95;;;;;;;8.70;100.00;101210.16;4825181;29;20461;-82
2021/09/17 07:41:10;;;;;;;4.28;3.10;;;;;;;9.13;100.00;101266.94;4808229;29;20082;-82
2021/09/17 07:43:36;;;;;;;4.38;3.00;;;;;;;9.22;100.00;101291.88;4816001;29;20510;-83
2021/09/17 07:46:02;;;;;;;3.33;2.63;;;;;;;8.85;100.00;101250.50;4804193;30;20031;-82
2021/09/17 07:48:27;;;;;;;5.18;2.85;;;;;;;8.69;100.00;101208.50;4811059;29;20027;-80
2021/09/17 07:50:53;;;;;;;3.65;3.00;;;;;;;9.09;100.00;101271.00;4824037;29;20062;-83
2021/09/17 07:53:18;;;;;;;4.18;3.50;;;;;;;9.08;100.00;101240.63;4805038;29;20050;-81
2021/09/17 07:55:44;;;;;;;4.68;3.20;;;;;;;9.10;100.00;101296.81;4804415;29;20035;-83
2021/09/17 07:58:09;;;;;;;5.15;3.20;;;;;;;8.81;100.00;101222.38;4815678;29;20106;-82
2021/09/17 08:00:35;;;;;;;4.88;3.28;;;;;;;8.78;100.00;101233.47;4813198;29;20034;-83
2021/09/17 08:03:00;;;;;;;4.88;3.10;;;;;;;9.07;100.00;101279.25;4802555;29;20034;-82
2021/09/17 08:05:26;;;;;;;4.25;2.97;;;;;;;9.06;100.00;101287.44;4818418;29;20027;-80
2021/09/17 08:07:53;;;;;;;6.03;3.58;;;;;;;8.84;100.00;101249.69;4818309;29;20086;-81
2021/09/17 08:10:18;;;;;;;3.75;3.10;;;;;;;9.06;100.00;101282.91;4805352;29;20034;-83
2021/09/17 08:12:44;;;;;;;4.53;3.17;;;;;;;8.98;100.00;101284.84;4809966;29;20050;-85
2021/09/17 08:15:10;;;;;;;3.05;2.67;;;;;;;9.35;100.00;101322.50;4828774;29;20027;-84
2021/09/17 08:17:36;;;;;;;4.78;3.38;;;;;;;9.21;100.00;101299.13;4808158;29;20038;-83
2021/09/17 08:20:02;;;;;;;5.75;4.03;;;;;;;9.05;100.00;101285.78;4814316;29;20124;-83
2021/09/17 08:22:28;;;;;;;3.92;3.40;;;;;;;9.10;100.00;101296.81;4827897;29;20516;-83
2021/09/17 08:24:53;;;;;;;5.13;3.22;;;;;;;9.33;100.00;101345.19;4804651;29;20030;-83
2021/09/17 08:27:19;;;;;;;3.97;3.40;;;;;;;9.05;100.00;101297.34;4815776;29;20043;-82
2021/09/17 08:29:45;;;;;;;4.22;3.38;;;;;;;8.85;100.00;101251.34;4813115;29;20035;-81
2021/09/17 08:32:10;;;;;;;4.80;3.33;;;;;;;9.37;100.00;101360.78;4813539;29;20060;-81
2021/09/17 08:34:36;;;;;;;4.80;3.20;;;;;;;8.90;100.00;101265.06;4817355;29;20163;-80
2021/09/17 08:37:03;;;;;;;5.03;3.75;;;;;;;8.91;100.00;101266.75;4800087;29;20067;-81
2021/09/17 08:39:29;;;;;;;4.35;3.08;;;;;;;8.99;100.00;101270.38;4803931;29;20030;-80
2021/09/17 08:41:55;;;;;;;4.43;3.50;;;;;;;9.05;100.00;101286.63;4816485;29;20054;-81
2021/09/17 08:44:21;;;;;;;4.13;3.22;;;;;;;9.18;100.00;101304.84;4799805;29;20039;-81
2021/09/17 08:46:46;;;;;;;4.85;3.72;;;;;;;9.53;100.00;101367.88;4813943;29;20035;-82
2021/09/17 08:49:12;;;;;;;5.53;3.60;;;;;;;9.26;100.00;101312.81;4799242;29;20034;-81
2021/09/17 08:51:38;;;;;;;6.32;3.40;;;;;;;9.15;100.00;101295.28;4818965;29;20110;-81
2021/09/17 08:54:05;;;;;;;4.40;3.33;;;;;;;9.03;100.00;101282.44;4804175;29;20039;-82
2021/09/17 08:56:31;;;;;;;4.45;3.40;;;;;;;9.13;100.00;101293.78;4827511;29;20052;-82
2021/09/17 08:58:57;;;;;;;4.22;3.40;;;;;;;9.34;100.00;101330.75;4809142;29;20022;-81
2021/09/17 09:01:29;;;;;;;4.13;3.33;;;;;;;9.08;100.00;101285.44;4813667;29;20031;-80
2021/09/17 09:03:59;;;;;;;6.47;3.45;;;;;;;9.28;100.00;101315.34;4808619;29;20031;-79
2021/09/17 09:06:25;;;;;;;7.47;3.85;;;;;;;9.12;100.00;101289.44;4808455;29;20054;-80
2021/09/17 09:08:51;;;;;;;5.65;3.40;;;;;;;9.47;100.00;101333.69;4795305;29;20035;-81
2021/09/17 09:11:22;;;;;;;4.53;3.25;;;;;;;9.53;100.00;101348.22;4814562;29;20043;-79
2021/09/17 09:13:58;;;;;;;5.20;3.30;;;;;;;9.72;100.00;101381.84;4807352;29;20470;-81
2021/09/17 09:16:24;;;;;;;5.75;3.30;;;;;;;9.32;100.00;101314.81;4780405;30;20031;-81
2021/09/17 09:18:49;;;;;;;4.00;3.60;;;;;;;9.74;100.00;101383.34;4807846;29;20054;-81
2021/09/17 09:21:30;;;;;;;6.47;3.50;;;;;;;9.61;100.00;101321.31;4822652;29;20063;-81
2021/09/17 09:24:16;;;;;;;3.70;3.13;;;;;;;9.38;100.00;101292.59;4799202;29;20067;-81
2021/09/17 09:26:44;;;;;;;6.70;3.80;;;;;;;9.70;100.00;101331.00;4805015;29;20342;-80
2021/09/17 09:29:29;;;;;;;4.80;2.97;;;;;;;9.70;100.00;101324.75;4818853;29;20027;-81
2021/09/17 09:31:55;;;;;;;6.50;3.30;;;;;;;9.68;100.00;101319.56;4822896;29;20111;-81
2021/09/17 09:34:23;;;;;;;5.70;3.38;;;;;;;9.63;100.00;101316.59;4825496;29;20076;-80
2021/09/17 09:37:01;;;;;;;5.65;3.28;;;;;;;9.69;100.00;101326.63;4809681;29;20123;-79
2021/09/17 09:39:26;;;;;;;5.57;3.03;;;;;;;9.72;100.00;101328.09;4798507;29;20022;-79
2021/09/17 09:41:52;;;;;;;3.83;2.58;;;;;;;10.07;100.00;101380.41;4796226;29;20027;-80
2021/09/17 09:44:18;;;;;;;3.80;2.95;;;;;;;10.11;100.00;101379.00;4814493;29;20394;-80
2021/09/17 09:46:44;;;;;;;4.80;3.05;;;;;;;10.25;100.00;101370.13;4798215;29;20038;-80
2021/09/17 09:49:21;;;;;;;2.92;2.60;;;;;;;10.33;100.00;101385.38;4799328;29;20039;-80
2021/09/17 09:52:00;;;;;;;3.83;3.03;;;;;;;10.35;100.00;101389.56;4803071;29;20095;-79
2021/09/17 09:54:29;;;;;;;5.50;3.05;;;;;;;10.45;100.00;101372.31;4813718;29;20358;-79
2021/09/17 09:56:56;;;;;;;4.15;2.80;;;;;;;10.50;100.00;101394.16;4794051;29;20346;-79
2021/09/17 09:59:27;;;;;;;3.13;2.80;;;;;;;10.39;100.00;101408.03;4783820;30;20131;-79
2021/09/17 10:01:55;;;;;;;5.28;3.13;;;;;;;10.46;100.00;101395.50;4801391;29;20133;-79
2021/09/17 10:04:25;;;;;;;4.07;2.78;;;;;;;10.44;100.00;101403.78;4797122;29;20046;-79
2021/09/17 10:07:08;;;;;;;4.32;2.75;;;;;;;10.42;100.00;101405.81;4780850;29;20031;-79
2021/09/17 10:09:36;;;;;;;3.47;3.17;;;;;;;10.42;100.00;101405.81;4812998;29;20381;-78
2021/09/17 10:12:03;;;;;;;4.25;3.03;;;;;;;10.54;100.00;101420.50;4812171;29;20035;-79
2021/09/17 10:14:30;;;;;;;3.97;3.22;;;;;;;10.35;100.00;101399.50;4796184;29;20445;-79
2021/09/17 10:16:58;;;;;;;3.60;2.72;;;;;;;10.35;100.00;101392.25;4767817;29;20046;-80
2021/09/17 10:19:24;;;;;;;3.30;2.70;;;;;;;10.41;100.00;101419.47;4813968;29;20110;-78
2021/09/17 10:21:59;;;;;;;4.70;3.10;;;;;;;10.44;100.00;101413.72;4817069;29;20382;-79
2021/09/17 10:24:29;;;;;;;3.40;2.53;;;;;;;10.46;100.00;101428.66;4805721;29;20031;-79
2021/09/17 10:27:04;;;;;;;4.35;2.72;;;;;;;10.36;100.00;101409.22;4807443;29;20043;-78
2021/09/17 10:29:32;;;;;;;4.05;3.15;;;;;;;10.62;100.00;101427.63;4816117;29;20350;-81
2021/09/17 10:32:00;;;;;;;4.28;3.00;;;;;;;10.64;100.00;101433.69;4797995;29;20042;-80
2021/09/17 10:34:41;;;;;;;3.60;2.88;;;;;;;10.60;100.00;101412.72;4782580;29;20130;-79
2021/09/17 10:37:09;;;;;;;3.55;3.15;;;;;;;10.61;100.00;101409.81;4813114;29;20113;-80
2021/09/17 10:39:35;;;;;;;4.35;3.03;;;;;;;10.82;99.49;101433.31;4810901;29;20106;-79
2021/09/17 10:42:12;;;;;;;5.75;3.00;;;;;;;10.77;99.70;101438.44;4807197;29;20035;-80
2021/09/17 10:45:02;;;;;;;3.15;2.60;;;;;;;10.80;98.50;101449.66;4795113;29;20477;-81
2021/09/17 10:47:39;;;;;;;4.93;3.55;;;;;;;10.87;99.12;101438.16;4812909;29;20030;-82
2021/09/17 10:50:08;;;;;;;4.72;2.88;;;;;;;10.87;98.91;101424.69;4818698;29;20034;-81
2021/09/17 10:52:52;;;;;;;3.08;2.47;;;;;;;10.79;97.95;101450.69;4813853;29;20034;-79
2021/09/17 10:55:45;;;;;;;4.72;2.97;;;;;;;10.93;98.86;101456.28;4786381;29;20042;-81
2021/09/17 10:58:24;;;;;;;3.67;2.65;;;;;;;10.77;97.89;101443.81;4820863;29;20027;-80
2021/09/17 11:01:10;;;;;;;4.03;2.78;;;;;;;10.83;97.69;101459.22;4803634;29;20027;-82
2021/09/17 11:03:35;;;;;;;4.35;2.47;;;;;;;10.92;98.33;101460.78;4806927;29;20079;-82
2021/09/17 11:06:28;;;;;;;3.30;2.65;;;;;;;10.90;97.72;101437.78;4819058;29;20022;-83
2021/09/17 11:09:03;;;;;;;3.50;2.50;;;;;;;10.83;97.94;101437.69;4812141;29;20027;-80
2021/09/17 11:11:30;;;;;;;;;;;;;;;10.90;97.07;101451.25;4815879;29;20038;-81
2021/09/17 11:13:59;;;;;;;5.10;2.50;;;;;;;10.96;97.43;101454.03;4804172;29;19913;-82
2021/09/17 11:16:48;;;;;;;3.10;2.63;;;;;;;11.12;97.27;101452.16;4815720;29;20034;-81
2021/09/17 11:19:17;;;;;;;3.47;2.53;;;;;;;11.03;96.90;101472.97;4795166;29;20121;-81
2021/09/17 11:21:45;;;;;;;3.05;2.40;;;;;;;10.97;96.88;101452.19;4784486;29;20414;-80
2021/09/17 11:24:25;;;;;;;5.07;2.80;;;;;;;11.04;96.61;101474.66;4813734;29;20030;-80
2021/09/17 11:26:52;;;;;;;3.90;2.67;;;;;;;11.02;97.18;101476.69;4806889;29;20531;-80
2021/09/17 11:29:20;;;;;;;3.17;2.38;;;;;;;10.94;96.61;101476.78;4797122;29;20085;-80
2021/09/17 11:31:47;;;;;;;4.30;2.38;;;;;;;10.92;97.20;101465.34;4815022;29;20047;-80
2021/09/17 11:34:15;;;;;;;3.42;2.35;;;;;;;11.00;97.06;101473.34;4814580;29;20113;-80
2021/09/17 11:36:45;;;;;;;3.47;2.40;;;;;;;10.96;96.68;101480.09;4809485;29;20048;-79
2021/09/17 11:39:19;;;;;;;3.25;2.45;;;;;;;10.95;97.21;101475.75;4812781;29;20110;-79
2021/09/17 11:41:59;;;;;;;2.67;2.40;;;;;;;10.93;96.49;101486.72;4809259;29;20036;-79
2021/09/17 11:44:32;;;;;;;2.55;2.22;;;;;;;10.99;96.59;101496.75;4811413;29;20039;-80
2021/09/17 11:46:58;;;;;;;4.47;2.42;;;;;;;10.87;96.20;101474.00;4796311;29;20026;-79
2021/09/17 11:49:25;;;;;;;2.75;2.38;;;;;;;10.99;97.20;101488.69;4765897;29;20071;-81
2021/09/17 11:51:56;;;;;;;2.60;2.20;;;;;;;10.94;96.59;101480.31;4814290;29;20027;-79
2021/09/17 11:54:21;;;;;;;7.28;2.00;;;;;;;10.87;96.05;101481.25;4811637;29;20062;-79
2021/09/17 11:57:05;;;;;;;3.88;2.63;;;;;;;10.95;96.32;101508.06;4781959;29;20117;-79
2021/09/17 11:59:40;;;;;;;4.15;2.58;;;;;;;10.90;96.62;101484.41;4812437;29;20485;-80
2021/09/17 12:02:25;;;;;;;;;;;;;;;10.95;96.47;101495.44;4808316;29;20147;-80
2021/09/17 12:04:59;;;;;;;3.42;2.25;;;;;;;11.00;96.76;101494.91;4812247;29;19913;-81
2021/09/17 12:07:25;;;;;;;2.85;2.30;;;;;;;11.03;96.95;101499.91;4808919;29;20050;-79
2021/09/17 12:09:52;;;;;;;2.75;2.15;;;;;;;11.09;96.85;101501.84;4799931;29;20023;-80
2021/09/17 12:12:17;;;;;;;3.42;2.22;;;;;;;11.06;97.03;101494.16;4816732;29;20045;-79
2021/09/17 12:14:56;;;;;;;2.80;2.08;;;;;;;11.13;95.90;101508.56;4820397;29;20501;-80
2021/09/17 12:17:23;;;;;;;2.55;2.30;;;;;;;11.12;96.19;101509.56;4812487;29;20098;-80
2021/09/17 12:20:05;;;;;;;2.85;1.85;;;;;;;11.08;95.66;101499.34;4810367;29;20007;-79
2021/09/17 12:22:35;;;;;;;4.07;1.80;;;;;;;11.15;95.51;101493.03;4827420;29;20094;-80
2021/09/17 12:25:13;;;;;;;4.25;2.20;;;;;;;11.18;96.17;101491.81;4801072;29;20035;-80
2021/09/17 12:27:42;;;;;;;5.05;2.28;;;;;;;11.07;95.62;101487.75;4805727;29;20038;-80
2021/09/17 12:30:09;;;;;;;2.40;2.17;;;;;;;11.22;95.68;101499.31;4813389;29;20091;-82
2021/09/17 12:32:36;;;;;;;2.83;2.15;;;;;;;11.20;95.88;101490.63;4825220;29;20104;-80
2021/09/17 12:35:05;;;;;;;2.80;2.17;;;;;;;11.08;95.62;101486.72;4818910;29;20027;-79
2021/09/17 12:37:30;;;;;;;3.13;2.03;;;;;;;10.98;95.93;101478.06;4820714;29;20114;-81
2021/09/17 12:40:10;;;;;;;3.20;2.15;;;;;;;11.14;96.63;101502.13;4818316;29;20557;-79
2021/09/17 12:42:35;;;;;;;3.00;2.22;;;;;;;11.18;96.81;101511.50;4813430;29;20031;-80
2021/09/17 12:45:02;;;;;;;2.50;2.20;;;;;;;11.00;96.13;101498.41;4815220;29;20101;-80
2021/09/17 12:47:28;;;;;;;2.55;2.35;;;;;;;11.20;96.59;101527.50;4817413;29;20035;-79
2021/09/17 12:50:08;;;;;;;4.03;2.30;;;;;;;11.25;96.50;101517.00;4809874;29;20101;-80